createdAt,value
2023-03-22T00:00:07.049Z,1.43
2023-03-22T00:56:27.348Z,1.95
2023-03-22T01:00:28.212Z,1.45
2023-03-22T01:04:28.125Z,1.43
2023-03-22T01:08:28.059Z,1.00
2023-03-22T01:12:28.018Z,0.95
2023-03-22T01:16:28.003Z,1.17
2023-03-22T01:20:27.802Z,1.38
2023-03-22T01:24:27.713Z,1.26
2023-03-22T01:28:27.635Z,1.31
2023-03-22T01:32:27.508Z,1.25
2023-03-22T01:36:27.428Z,1.48
2023-03-22T01:40:27.377Z,1.67
2023-03-22T01:44:27.384Z,1.15
2023-03-22T01:48:27.332Z,1.36
2023-03-22T01:52:27.313Z,1.14
2023-03-22T01:56:27.298Z,1.29
2023-03-22T02:00:27.312Z,1.33
2023-03-22T02:04:27.253Z,1.44
2023-03-22T02:08:27.257Z,1.54
2023-03-22T02:12:27.191Z,0.97
2023-03-22T02:16:27.190Z,1.08
2023-03-22T02:20:27.147Z,1.22
2023-03-22T02:24:27.121Z,1.16
2023-03-22T02:28:27.085Z,1.31
2023-03-22T02:32:27.081Z,1.02
2023-03-22T02:36:27.004Z,1.42
2023-03-22T02:40:26.954Z,1.31
2023-03-22T02:44:26.897Z,1.13
2023-03-22T02:48:27.025Z,1.25
2023-03-22T02:52:26.803Z,1.22
2023-03-22T02:56:26.761Z,1.14
2023-03-22T03:00:26.723Z,0.92
2023-03-22T03:04:26.718Z,1.28
2023-03-22T03:08:26.656Z,1.41
2023-03-22T03:12:26.631Z,1.25
2023-03-22T03:16:26.697Z,1.06
2023-03-22T03:20:26.604Z,1.16
2023-03-22T03:24:26.548Z,1.27
2023-03-22T03:28:26.520Z,1.04
2023-03-22T03:32:26.503Z,1.09
2023-03-22T03:36:26.503Z,1.42
2023-03-22T03:40:26.452Z,0.89
2023-03-22T03:44:26.443Z,1.22
2023-03-22T03:48:26.405Z,1.35
2023-03-22T03:52:26.416Z,1.22
2023-03-22T03:56:26.366Z,1.32
2023-03-22T04:00:26.346Z,1.25
2023-03-22T04:04:26.828Z,1.15
2023-03-22T04:08:26.280Z,1.10
2023-03-22T04:12:26.255Z,1.27
2023-03-22T04:16:26.298Z,1.26
2023-03-22T04:20:26.163Z,1.25
2023-03-22T04:24:26.141Z,1.04
2023-03-22T04:28:26.069Z,1.35
2023-03-22T04:32:26.043Z,1.20
2023-03-22T04:36:25.981Z,1.20
2023-03-22T04:40:25.961Z,1.16
2023-03-22T04:44:25.888Z,0.97
2023-03-22T04:48:25.905Z,0.92
2023-03-22T04:52:25.913Z,0.98
2023-03-22T04:56:25.968Z,0.88
2023-03-22T05:00:25.936Z,0.97
2023-03-22T05:04:25.923Z,1.06
2023-03-22T05:08:25.914Z,1.10
2023-03-22T05:12:25.840Z,1.39
2023-03-22T05:16:25.744Z,2.43
2023-03-22T05:20:25.680Z,1.98
2023-03-22T05:24:25.775Z,1.91
2023-03-22T05:28:25.859Z,1.65
2023-03-22T05:32:25.916Z,1.64
2023-03-22T05:36:26.053Z,1.94
2023-03-22T05:40:25.942Z,1.86
2023-03-22T05:44:25.858Z,1.40
2023-03-22T05:48:25.732Z,1.92
2023-03-22T05:52:25.641Z,1.81
2023-03-22T05:56:25.543Z,2.30
2023-03-22T06:00:25.490Z,1.60
2023-03-22T06:04:25.556Z,1.75
2023-03-22T06:08:26.689Z,2.28
2023-03-22T06:12:25.440Z,1.58
2023-03-22T06:16:25.424Z,1.75
2023-03-22T06:20:25.250Z,2.09
2023-03-22T06:24:25.358Z,2.23
2023-03-22T06:28:25.362Z,1.88
2023-03-22T06:32:25.021Z,1.71
2023-03-22T06:36:25.360Z,1.71
2023-03-22T06:40:25.355Z,2.23
2023-03-22T06:44:25.364Z,2.35
2023-03-22T06:48:25.085Z,1.95
2023-03-22T06:52:25.356Z,2.07
2023-03-22T06:56:25.518Z,2.49
2023-03-22T07:00:26.367Z,2.18
2023-03-22T07:04:25.468Z,2.34
2023-03-22T07:08:25.359Z,2.07
2023-03-22T07:12:25.397Z,2.17
2023-03-22T07:16:25.949Z,1.98
2023-03-22T07:20:25.898Z,1.94
2023-03-22T07:24:25.879Z,2.73
2023-03-22T07:28:25.876Z,2.81
2023-03-22T07:32:25.919Z,2.75
2023-03-22T07:36:25.903Z,2.31
2023-03-22T07:40:25.903Z,2.67
2023-03-22T07:44:25.932Z,2.62
2023-03-22T07:48:26.560Z,2.60
2023-03-22T07:52:25.917Z,2.64
2023-03-22T07:56:25.893Z,3.08
2023-03-22T08:00:25.908Z,3.19
2023-03-22T08:04:25.923Z,3.34
2023-03-22T08:08:25.504Z,2.70
2023-03-22T08:12:25.896Z,3.34
2023-03-22T08:16:25.990Z,3.29
2023-03-22T08:20:25.924Z,3.14
2023-03-22T08:24:25.642Z,3.05
2023-03-22T08:28:25.900Z,2.91
2023-03-22T08:32:25.905Z,2.86
2023-03-22T08:36:25.925Z,2.99
2023-03-22T08:40:26.631Z,3.74
2023-03-22T08:44:26.035Z,2.60
2023-03-22T08:48:26.452Z,2.83
2023-03-22T08:52:26.438Z,2.45
2023-03-22T08:56:26.462Z,2.87
2023-03-22T09:00:30.128Z,1.91
2023-03-22T09:04:26.965Z,3.76
2023-03-22T09:08:25.913Z,1.90
2023-03-22T09:12:25.937Z,2.03
2023-03-22T09:16:26.060Z,1.73
2023-03-22T09:20:25.962Z,1.89
2023-03-22T09:24:25.527Z,2.17
2023-03-22T09:28:25.989Z,1.61
2023-03-22T09:32:25.422Z,1.59
2023-03-22T09:36:25.416Z,1.65
2023-03-22T09:40:25.423Z,1.54
2023-03-22T09:44:25.464Z,2.00
2023-03-22T09:48:25.521Z,1.84
2023-03-22T09:52:25.482Z,1.90
2023-03-22T09:56:25.420Z,1.73
2023-03-22T10:00:25.549Z,1.25
2023-03-22T10:04:25.461Z,1.59
2023-03-22T10:08:24.997Z,1.39
2023-03-22T10:12:24.934Z,1.48
2023-03-22T10:16:25.062Z,1.34
2023-03-22T10:20:24.932Z,1.36
2023-03-22T10:24:24.505Z,1.60
2023-03-22T10:28:24.534Z,1.72
2023-03-22T10:32:24.575Z,1.87
2023-03-22T10:36:24.526Z,1.93
2023-03-22T10:40:23.942Z,1.97
2023-03-22T10:44:23.944Z,1.89
2023-03-22T10:48:24.044Z,2.53
2023-03-22T10:52:23.981Z,2.27
2023-03-22T10:56:23.411Z,2.09
2023-03-22T11:00:23.466Z,2.00
2023-03-22T11:04:23.473Z,1.66
2023-03-22T11:08:23.676Z,1.54
2023-03-22T11:12:22.963Z,1.74
2023-03-22T11:16:22.776Z,1.48
2023-03-22T11:20:23.170Z,1.76
2023-03-22T11:24:22.955Z,1.67
2023-03-22T11:28:22.960Z,1.31
2023-03-22T11:32:22.469Z,1.42
2023-03-22T11:36:22.270Z,1.04
2023-03-22T11:40:22.491Z,1.26
2023-03-22T11:44:21.979Z,0.96
2023-03-22T11:48:22.127Z,1.18
2023-03-22T11:52:21.997Z,1.12
2023-03-22T11:56:21.485Z,0.96
2023-03-22T12:00:21.533Z,0.89
2023-03-22T12:04:21.506Z,1.00
2023-03-22T12:08:21.511Z,1.03
2023-03-22T12:12:21.470Z,0.88
2023-03-22T12:16:24.254Z,1.49
2023-03-22T12:20:20.990Z,1.62
2023-03-22T12:24:20.791Z,1.50
2023-03-22T12:28:20.984Z,1.25
2023-03-22T12:32:20.481Z,1.36
2023-03-22T12:36:20.539Z,1.73
2023-03-22T12:40:20.519Z,1.13
2023-03-22T12:44:20.488Z,1.35
2023-03-22T12:48:20.085Z,1.24
2023-03-22T12:52:19.991Z,0.94
2023-03-22T12:56:20.047Z,1.62
2023-03-22T13:00:20.002Z,1.51
2023-03-22T13:04:20.077Z,1.43
2023-03-22T13:08:19.664Z,1.38
2023-03-22T13:12:20.040Z,2.25
2023-03-22T13:16:20.055Z,2.79
2023-03-22T13:20:20.066Z,2.51
2023-03-22T13:24:20.006Z,2.29
2023-03-22T13:28:20.027Z,2.18
2023-03-22T13:32:20.800Z,2.05
2023-03-22T13:36:20.008Z,2.32
2023-03-22T13:40:19.561Z,3.55
2023-03-22T13:44:19.576Z,3.74
2023-03-22T13:48:19.625Z,4.24
2023-03-22T13:52:19.511Z,3.91
2023-03-22T13:56:20.034Z,4.57
2023-03-22T14:00:20.717Z,4.07
2023-03-22T14:04:19.525Z,4.17
2023-03-22T14:08:20.023Z,4.03
2023-03-22T14:12:19.536Z,4.11
2023-03-22T14:16:19.607Z,3.53
2023-03-22T14:20:20.022Z,4.05
2023-03-22T14:48:19.062Z,2.20
2023-03-22T14:52:18.405Z,2.79
2023-03-22T14:56:18.535Z,2.48
2023-03-22T15:00:18.138Z,1.96
2023-03-22T15:04:18.060Z,2.20
2023-03-22T15:08:17.882Z,2.31
2023-03-22T15:12:18.035Z,2.39
2023-03-22T15:16:18.092Z,2.08
2023-03-22T15:20:17.650Z,2.14
2023-03-22T15:24:17.543Z,2.53
2023-03-22T15:28:17.476Z,2.05
2023-03-22T15:32:17.544Z,2.19
2023-03-22T15:36:17.589Z,2.24
2023-03-22T15:40:17.558Z,1.66
2023-03-22T15:44:17.551Z,1.94
2023-03-22T15:48:17.363Z,2.21
2023-03-22T15:52:17.574Z,2.43
2023-03-22T15:56:17.557Z,1.89
2023-03-22T16:00:17.179Z,1.95
2023-03-22T16:04:17.558Z,1.94
2023-03-22T16:08:17.237Z,1.91
2023-03-22T16:12:17.092Z,1.73
2023-03-22T16:16:17.101Z,1.64
2023-03-22T16:20:17.028Z,1.61
2023-03-22T16:24:17.046Z,1.71
2023-03-22T16:28:17.066Z,1.80
2023-03-22T16:32:17.065Z,1.76
2023-03-22T16:36:16.843Z,1.62
2023-03-22T16:40:16.810Z,1.95
2023-03-22T16:44:16.738Z,1.69
2023-03-22T16:48:16.698Z,2.07
2023-03-22T16:52:16.658Z,1.84
2023-03-22T16:56:16.644Z,1.72
2023-03-22T17:00:16.613Z,1.52
2023-03-22T17:04:16.658Z,1.77
2023-03-22T17:08:16.584Z,1.93
2023-03-22T17:12:16.634Z,1.78
2023-03-22T17:16:16.654Z,1.92
2023-03-22T17:20:16.588Z,1.81
2023-03-22T17:24:16.589Z,1.74
2023-03-22T17:28:16.611Z,1.56
2023-03-22T17:32:20.960Z,1.95
2023-03-22T17:36:16.510Z,1.80
2023-03-22T17:40:32.526Z,1.99
2023-03-22T17:44:16.276Z,1.71
2023-03-22T17:48:16.167Z,1.67
2023-03-22T17:52:16.012Z,2.09
2023-03-22T17:56:44.985Z,1.78
2023-03-22T18:00:15.818Z,1.54
2023-03-22T18:04:15.679Z,1.63
2023-03-22T18:08:27.294Z,1.66
2023-03-22T18:12:15.416Z,1.71
2023-03-22T18:16:15.350Z,2.00
2023-03-22T18:20:24.916Z,2.02
2023-03-22T18:24:15.044Z,1.58
2023-03-22T18:28:14.904Z,1.63
2023-03-22T18:32:18.552Z,1.56
2023-03-22T18:36:14.742Z,1.70
2023-03-22T18:44:14.436Z,1.48
2023-03-22T18:48:14.294Z,1.51
2023-03-22T19:00:12.953Z,1.71
2023-03-22T19:04:13.975Z,1.51
2023-03-22T19:08:25.881Z,2.14
2023-03-22T19:12:13.876Z,1.80
2023-03-22T19:16:13.782Z,1.47
2023-03-22T19:20:13.718Z,2.05
2023-03-22T19:24:13.559Z,1.69
2023-03-22T19:28:13.435Z,1.80
2023-03-22T19:32:13.342Z,1.86
2023-03-22T19:36:13.251Z,1.73
2023-03-22T19:41:11.222Z,1.35
2023-03-22T19:44:13.005Z,1.57
2023-03-22T19:48:12.955Z,1.89
2023-03-22T19:52:12.832Z,1.54
2023-03-22T19:56:12.731Z,1.88
2023-03-22T20:00:44.359Z,1.89
2023-03-22T20:04:12.534Z,1.47
2023-03-22T20:08:12.409Z,1.80
2023-03-22T20:12:12.288Z,1.96
2023-03-22T20:16:12.179Z,1.58
2023-03-22T20:20:12.079Z,1.69
2023-03-22T20:24:11.997Z,2.18
2023-03-22T20:28:11.849Z,1.51
2023-03-22T20:32:11.745Z,1.96
2023-03-22T20:36:11.744Z,1.89
2023-03-22T20:40:11.876Z,1.83
2023-03-22T20:44:11.954Z,1.99
2023-03-22T20:48:12.061Z,1.63
2023-03-22T20:52:12.172Z,1.68
2023-03-22T20:56:12.317Z,1.88
2023-03-22T21:00:12.440Z,1.76
2023-03-22T21:04:12.538Z,1.77
2023-03-22T21:08:14.349Z,1.80
2023-03-22T21:12:12.585Z,1.96
2023-03-22T21:16:12.474Z,1.91
2023-03-22T21:20:20.657Z,1.60
2023-03-22T21:24:12.308Z,1.88
2023-03-22T21:28:12.224Z,1.89
2023-03-22T21:32:12.082Z,1.79
2023-03-22T21:36:11.979Z,1.90
2023-03-22T21:40:11.878Z,1.79
2023-03-22T21:44:11.823Z,1.45
2023-03-22T21:48:11.702Z,1.39
2023-03-22T21:52:11.824Z,1.61
2023-03-22T21:56:11.705Z,2.01
2023-03-22T22:00:11.633Z,1.65
2023-03-22T22:04:11.503Z,2.12
2023-03-22T22:08:11.406Z,2.07
2023-03-22T22:12:11.294Z,1.57
2023-03-22T22:16:11.234Z,1.45
2023-03-22T22:20:11.140Z,1.93
2023-03-22T22:24:11.024Z,1.73
2023-03-22T22:28:10.950Z,1.55
2023-03-22T22:32:10.845Z,1.76
2023-03-22T22:36:10.696Z,1.56
2023-03-22T22:40:10.594Z,1.49
2023-03-22T22:44:10.512Z,1.66
2023-03-22T22:48:10.448Z,1.78
2023-03-22T22:52:10.325Z,1.58
2023-03-22T22:56:10.225Z,1.34
2023-03-22T23:00:10.122Z,1.85
2023-03-22T23:04:10.072Z,1.71
2023-03-22T23:08:09.920Z,1.77
2023-03-22T23:12:09.809Z,2.24
2023-03-22T23:16:09.763Z,1.39
2023-03-22T23:20:09.635Z,1.65
2023-03-22T23:24:09.553Z,1.63
2023-03-22T23:28:09.457Z,1.40
2023-03-22T23:32:09.351Z,1.65
2023-03-22T23:36:09.540Z,1.32
2023-03-22T23:40:09.373Z,1.31
2023-03-22T23:44:09.270Z,1.52
2023-03-22T23:48:09.198Z,1.68
2023-03-22T23:52:09.112Z,1.78
2023-03-22T23:56:08.993Z,1.45
